createdAt,value
2022-11-14T00:01:49.040Z,17.80
2022-11-14T00:04:10.481Z,14.97
2022-11-14T00:06:32.271Z,16.57
2022-11-14T00:08:53.710Z,15.67
2022-11-14T00:11:15.165Z,17.47
2022-11-14T00:13:36.664Z,20.47
2022-11-14T00:15:58.130Z,22.27
2022-11-14T00:18:20.219Z,21.90
2022-11-14T00:20:41.651Z,20.53
2022-11-14T00:23:03.197Z,18.00
2022-11-14T00:25:24.820Z,21.47
2022-11-14T00:27:46.283Z,19.00
2022-11-14T00:30:08.261Z,22.07
2022-11-14T00:32:31.251Z,14.50
2022-11-14T00:34:52.682Z,13.97
2022-11-14T00:37:14.193Z,14.97
2022-11-14T00:39:35.692Z,18.80
2022-11-14T00:41:57.131Z,19.03
2022-11-14T00:44:18.579Z,19.80
2022-11-14T00:46:40.092Z,19.43
2022-11-14T00:49:01.595Z,17.00
2022-11-14T00:51:23.206Z,16.60
2022-11-14T00:53:44.646Z,17.20
2022-11-14T00:56:06.333Z,16.63
2022-11-14T00:58:28.268Z,20.07
2022-11-14T01:00:49.978Z,16.87
2022-11-14T01:03:11.513Z,19.50
2022-11-14T01:05:32.997Z,18.27
2022-11-14T01:07:54.523Z,18.80
2022-11-14T01:10:17.021Z,20.43
2022-11-14T01:12:38.441Z,20.67
2022-11-14T01:14:59.903Z,19.73
2022-11-14T01:17:21.666Z,18.87
2022-11-14T01:19:43.107Z,22.13
2022-11-14T01:22:06.499Z,19.53
2022-11-14T01:24:28.262Z,20.53
2022-11-14T01:26:49.733Z,19.07
2022-11-14T01:29:11.245Z,19.47
2022-11-14T01:31:32.697Z,24.30
2022-11-14T01:33:54.398Z,19.77
2022-11-14T01:36:16.592Z,18.30
2022-11-14T01:38:38.123Z,20.30
2022-11-14T01:41:00.343Z,18.73
2022-11-14T01:43:24.462Z,22.10
2022-11-14T01:46:02.525Z,16.03
2022-11-14T01:48:41.574Z,15.63
2022-11-14T01:51:42.768Z,18.53
2022-11-14T01:54:10.571Z,17.97
2022-11-14T01:56:36.958Z,15.97
2022-11-14T01:59:04.739Z,15.03
2022-11-14T02:01:29.629Z,18.27
2022-11-14T02:03:53.115Z,18.83
2022-11-14T02:06:18.451Z,17.23
2022-11-14T02:08:40.757Z,18.77
2022-11-14T02:11:02.216Z,20.97
2022-11-14T02:13:23.819Z,18.07
2022-11-14T02:15:45.299Z,19.50
2022-11-14T02:18:06.735Z,18.60
2022-11-14T02:20:32.946Z,17.50
2022-11-14T02:22:54.653Z,17.90
2022-11-14T02:25:18.625Z,19.10
2022-11-14T02:27:40.453Z,20.30
2022-11-14T02:30:17.302Z,14.20
2022-11-14T02:35:20.494Z,18.90
2022-11-14T02:37:42.222Z,16.47
2022-11-14T02:40:04.560Z,16.27
2022-11-14T02:42:26.046Z,15.43
2022-11-14T02:44:47.508Z,16.70
2022-11-14T02:47:08.929Z,13.27
2022-11-14T02:49:30.366Z,12.43
2022-11-14T02:51:51.771Z,12.30
2022-11-14T02:54:13.280Z,12.93
2022-11-14T02:56:35.083Z,11.30
2022-11-14T02:58:56.564Z,12.47
2022-11-14T03:01:21.212Z,12.03
2022-11-14T03:03:43.038Z,13.67
2022-11-14T03:06:05.045Z,12.30
2022-11-14T03:08:26.821Z,12.43
2022-11-14T03:10:48.347Z,11.67
2022-11-14T03:13:09.800Z,11.97
2022-11-14T03:15:31.241Z,11.47
2022-11-14T03:17:52.761Z,11.50
2022-11-14T03:20:14.262Z,11.57
2022-11-14T03:22:35.784Z,10.47
2022-11-14T03:24:57.249Z,11.63
2022-11-14T03:27:19.289Z,10.33
2022-11-14T03:29:40.786Z,9.97
2022-11-14T03:32:02.218Z,11.33
2022-11-14T03:34:23.689Z,10.87
2022-11-14T03:36:45.267Z,10.30
2022-11-14T03:39:06.810Z,10.60
2022-11-14T03:41:28.251Z,11.57
2022-11-14T03:43:49.704Z,11.83
2022-11-14T03:46:11.142Z,11.13
2022-11-14T03:48:33.043Z,11.83
2022-11-14T03:50:55.069Z,10.97
2022-11-14T03:53:16.508Z,12.13
2022-11-14T03:55:38.942Z,11.20
2022-11-14T03:58:00.647Z,14.03
2022-11-14T04:00:22.214Z,10.80
2022-11-14T04:02:43.700Z,11.90
2022-11-14T04:05:05.288Z,10.63
2022-11-14T04:07:26.780Z,9.10
2022-11-14T04:09:48.319Z,10.63
2022-11-14T04:12:14.416Z,9.60
2022-11-14T04:14:37.255Z,9.33
2022-11-14T04:16:58.686Z,10.53
2022-11-14T04:19:20.122Z,9.70
2022-11-14T04:21:41.599Z,11.17
2022-11-14T04:24:05.920Z,10.47
2022-11-14T04:26:31.376Z,10.93
2022-11-14T04:28:52.801Z,11.10
2022-11-14T04:31:14.247Z,10.57
2022-11-14T04:33:35.701Z,11.13
2022-11-14T04:35:57.143Z,11.03
2022-11-14T04:38:18.639Z,11.60
2022-11-14T04:40:40.046Z,10.30
2022-11-14T04:43:01.513Z,11.20
2022-11-14T04:45:23.096Z,12.37
2022-11-14T04:47:44.663Z,15.03
2022-11-14T04:50:06.681Z,12.20
2022-11-14T04:52:28.622Z,12.30
2022-11-14T04:54:50.046Z,10.33
2022-11-14T04:57:11.500Z,10.70
2022-11-14T04:59:32.999Z,10.77
2022-11-14T05:01:54.494Z,12.17
2022-11-14T05:04:15.973Z,10.33
2022-11-14T05:06:37.388Z,14.07
2022-11-14T05:08:58.885Z,10.27
2022-11-14T05:11:24.173Z,10.53
2022-11-14T05:13:49.467Z,10.47
2022-11-14T05:16:11.419Z,12.37
2022-11-14T05:18:33.030Z,11.87
2022-11-14T05:20:58.331Z,10.77
2022-11-14T05:23:22.810Z,11.10
2022-11-14T05:25:44.236Z,12.57
2022-11-14T05:28:05.682Z,11.87
2022-11-14T05:30:27.152Z,11.93
2022-11-14T05:32:48.653Z,10.80
2022-11-14T05:35:10.441Z,10.20
2022-11-14T05:37:32.087Z,11.03
2022-11-14T05:39:53.557Z,10.70
2022-11-14T05:42:15.014Z,11.67
2022-11-14T05:44:36.462Z,13.30
2022-11-14T05:46:58.065Z,12.00
2022-11-14T05:49:22.074Z,10.30
2022-11-14T05:51:43.790Z,11.70
2022-11-14T05:54:05.432Z,11.13
2022-11-14T05:56:26.957Z,11.23
2022-11-14T05:58:48.420Z,11.83
2022-11-14T06:01:15.589Z,10.57
2022-11-14T06:03:39.539Z,10.73
2022-11-14T06:06:06.349Z,10.83
2022-11-14T06:08:29.757Z,9.93
2022-11-14T06:10:51.578Z,9.63
2022-11-14T06:13:13.120Z,9.53
2022-11-14T06:15:34.531Z,15.37
2022-11-14T06:17:56.069Z,16.93
2022-11-14T06:20:17.625Z,17.77
2022-11-14T06:22:40.533Z,18.47
2022-11-14T06:25:02.871Z,17.97
2022-11-14T06:27:24.518Z,18.53
2022-11-14T06:29:45.942Z,18.97
2022-11-14T06:32:07.380Z,18.53
2022-11-14T06:34:28.861Z,19.43
2022-11-14T06:36:50.322Z,17.90
2022-11-14T06:39:11.812Z,18.57
2022-11-14T06:41:33.274Z,17.57
2022-11-14T06:43:54.862Z,18.63
2022-11-14T06:46:19.401Z,18.10
2022-11-14T06:48:42.523Z,18.00
2022-11-14T06:51:05.340Z,17.50
2022-11-14T06:53:29.176Z,18.10
2022-11-14T06:56:04.077Z,17.87
2022-11-14T06:58:30.548Z,16.43
2022-11-14T07:00:52.208Z,17.20
2022-11-14T07:03:13.754Z,17.53
2022-11-14T07:05:35.193Z,16.33
2022-11-14T07:07:57.698Z,16.43
2022-11-14T07:10:19.112Z,16.40
2022-11-14T07:12:40.544Z,17.37
2022-11-14T07:15:01.973Z,19.17
2022-11-14T07:17:27.143Z,20.53
2022-11-14T07:19:51.398Z,17.73
2022-11-14T07:22:12.860Z,18.00
2022-11-14T07:24:35.172Z,16.43
2022-11-14T07:26:56.632Z,17.70
2022-11-14T07:29:18.138Z,17.13
2022-11-14T07:31:40.641Z,16.30
2022-11-14T07:34:02.114Z,15.57
2022-11-14T07:36:24.338Z,16.57
2022-11-14T07:38:45.904Z,16.97
2022-11-14T07:41:13.260Z,16.93
2022-11-14T07:43:34.891Z,16.47
2022-11-14T07:46:03.901Z,16.30
2022-11-14T07:48:25.434Z,17.27
2022-11-14T07:50:47.660Z,17.20
2022-11-14T07:53:09.386Z,16.50
2022-11-14T07:55:30.825Z,16.63
2022-11-14T07:57:53.798Z,16.70
2022-11-14T08:00:15.560Z,16.03
2022-11-14T08:02:37.069Z,15.70
2022-11-14T08:04:58.578Z,16.07
2022-11-14T08:07:20.094Z,26.03
2022-11-14T08:09:41.605Z,21.57
2022-11-14T08:12:03.193Z,18.00
2022-11-14T08:14:24.641Z,20.37
2022-11-14T08:16:46.091Z,18.90
2022-11-14T08:19:07.755Z,15.90
2022-11-14T08:21:29.173Z,15.73
2022-11-14T08:23:50.604Z,17.23
2022-11-14T08:26:12.039Z,16.20
2022-11-14T08:28:33.965Z,16.17
2022-11-14T08:31:00.247Z,16.17
2022-11-14T08:33:21.709Z,17.63
2022-11-14T08:35:43.146Z,17.80
2022-11-14T08:38:04.587Z,16.43
2022-11-14T08:40:26.380Z,18.90
2022-11-14T08:42:47.877Z,18.17
2022-11-14T08:45:09.657Z,18.00
2022-11-14T08:47:31.124Z,18.30
2022-11-14T08:49:52.594Z,18.07
2022-11-14T08:52:16.802Z,17.90
2022-11-14T08:54:38.644Z,19.20
2022-11-14T08:57:00.104Z,16.90
2022-11-14T08:59:21.592Z,17.20
2022-11-14T09:01:43.179Z,17.70
2022-11-14T09:04:05.024Z,17.57
2022-11-14T09:06:26.581Z,17.57
2022-11-14T09:08:48.021Z,16.57
2022-11-14T09:11:10.180Z,17.00
2022-11-14T09:13:35.555Z,15.60
2022-11-14T09:15:57.062Z,15.90
2022-11-14T09:18:18.571Z,15.90
2022-11-14T09:20:40.679Z,17.27
2022-11-14T09:23:03.077Z,16.03
2022-11-14T09:25:26.469Z,16.33
2022-11-14T09:27:47.994Z,16.40
2022-11-14T09:30:10.791Z,16.93
2022-11-14T09:32:32.292Z,17.20
2022-11-14T09:34:53.767Z,16.93
2022-11-14T09:37:15.256Z,17.43
2022-11-14T09:39:40.483Z,16.90
2022-11-14T09:42:39.182Z,17.20
2022-11-14T09:45:03.011Z,16.43
2022-11-14T09:47:42.423Z,16.13
2022-11-14T09:50:26.204Z,17.00
2022-11-14T09:52:54.898Z,17.20
2022-11-14T09:55:36.633Z,16.83
2022-11-14T09:58:01.072Z,16.83
2022-11-14T10:00:25.078Z,15.87
2022-11-14T10:03:01.619Z,16.20
2022-11-14T10:06:01.859Z,16.33
2022-11-14T10:08:59.984Z,16.27
2022-11-14T10:11:47.064Z,15.47
2022-11-14T10:14:29.999Z,14.87
2022-11-14T10:17:10.489Z,14.97
2022-11-14T10:19:46.265Z,13.93
2022-11-14T10:22:37.572Z,15.73
2022-11-14T10:25:07.196Z,13.77
2022-11-14T10:27:43.092Z,13.37
2022-11-14T10:30:16.820Z,13.80
2022-11-14T10:33:10.741Z,14.30
2022-11-14T10:35:53.251Z,13.17
2022-11-14T10:38:19.547Z,14.30
2022-11-14T10:40:47.177Z,14.20
2022-11-14T10:43:40.630Z,13.10
2022-11-14T10:46:17.012Z,12.77
2022-11-14T10:48:48.863Z,12.93
2022-11-14T10:51:13.210Z,13.30
2022-11-14T10:54:19.169Z,12.87
2022-11-14T10:56:54.703Z,12.83
2022-11-14T10:59:16.653Z,12.17
2022-11-14T11:01:46.484Z,12.70
2022-11-14T11:04:22.828Z,12.60
2022-11-14T11:06:44.378Z,13.37
2022-11-14T11:09:45.102Z,13.17
2022-11-14T11:12:08.811Z,13.57
2022-11-14T11:14:30.998Z,12.47
2022-11-14T11:17:08.907Z,12.53
2022-11-14T11:19:30.972Z,13.33
2022-11-14T11:21:53.122Z,12.67
2022-11-14T11:24:31.174Z,12.90
2022-11-14T11:27:20.929Z,12.40
2022-11-14T11:29:42.425Z,12.67
2022-11-14T11:32:04.171Z,11.97
2022-11-14T11:34:28.057Z,12.43
2022-11-14T11:36:55.693Z,11.87
2022-11-14T11:39:25.593Z,12.63
2022-11-14T11:44:38.117Z,12.67
2022-11-14T11:47:03.018Z,12.63
2022-11-14T11:49:30.360Z,11.70
2022-11-14T11:51:55.512Z,12.50
2022-11-14T11:54:19.762Z,13.20
2022-11-14T11:56:44.075Z,13.23
2022-11-14T11:59:26.590Z,12.40
2022-11-14T12:01:48.551Z,12.87
2022-11-14T12:04:10.208Z,12.97
2022-11-14T12:06:41.663Z,12.97
2022-11-14T12:09:12.160Z,13.60
2022-11-14T12:11:37.791Z,13.13
2022-11-14T12:14:36.268Z,12.67
2022-11-14T12:17:04.642Z,12.13
2022-11-14T12:19:26.012Z,13.10
2022-11-14T12:22:12.202Z,49.70
2022-11-14T12:24:48.810Z,47.23
2022-11-14T12:27:39.085Z,12.70
2022-11-14T12:30:09.818Z,11.17
2022-11-14T12:32:42.404Z,11.23
2022-11-14T12:35:06.305Z,11.83
2022-11-14T12:37:37.947Z,12.30
2022-11-14T12:40:08.773Z,13.87
2022-11-14T12:42:31.748Z,11.87
2022-11-14T12:44:53.270Z,11.63
2022-11-14T12:47:20.745Z,11.00
2022-11-14T12:49:47.913Z,11.17
2022-11-14T12:52:41.264Z,11.17
2022-11-14T12:55:02.751Z,11.67
2022-11-14T12:57:48.000Z,11.77
2022-11-14T13:00:10.034Z,10.90
2022-11-14T13:03:03.314Z,10.57
2022-11-14T13:05:39.306Z,10.73
2022-11-14T13:08:27.518Z,10.80
2022-11-14T13:10:48.964Z,10.70
2022-11-14T13:13:34.901Z,10.67
2022-11-14T13:16:20.186Z,9.63
2022-11-14T13:19:18.494Z,10.50
2022-11-14T13:22:11.809Z,10.90
2022-11-14T13:25:02.605Z,10.27
2022-11-14T13:28:00.660Z,9.47
2022-11-14T13:30:16.377Z,10.00
2022-11-14T13:32:40.742Z,9.73
2022-11-14T13:35:11.740Z,9.47
2022-11-14T13:38:04.113Z,8.70
2022-11-14T13:40:28.617Z,8.73
2022-11-14T13:43:04.613Z,9.43
2022-11-14T13:45:37.986Z,9.33
2022-11-14T13:48:30.591Z,9.00
2022-11-14T13:51:00.711Z,8.10
2022-11-14T13:53:32.387Z,11.10
2022-11-14T13:56:04.451Z,9.20
2022-11-14T13:58:59.316Z,9.53
2022-11-14T14:01:30.017Z,8.83
2022-11-14T14:04:28.099Z,23.03
2022-11-14T14:07:16.471Z,11.50
2022-11-14T14:10:02.214Z,9.57
2022-11-14T14:12:45.415Z,7.83
2022-11-14T14:15:25.029Z,8.67
2022-11-14T14:18:05.611Z,7.73
2022-11-14T14:20:36.159Z,7.50
2022-11-14T14:23:27.417Z,7.87
2022-11-14T14:26:00.272Z,7.83
2022-11-14T14:28:41.373Z,7.57
2022-11-14T14:31:20.076Z,7.43
2022-11-14T14:33:42.708Z,7.27
2022-11-14T14:36:04.426Z,7.20
2022-11-14T14:38:28.379Z,7.20
2022-11-14T14:40:50.150Z,6.73
2022-11-14T14:43:25.672Z,7.17
2022-11-14T14:45:51.327Z,7.03
2022-11-14T14:48:21.752Z,6.90
2022-11-14T14:50:50.028Z,7.30
2022-11-14T14:53:24.108Z,6.43
2022-11-14T14:55:56.371Z,6.47
2022-11-14T14:58:24.799Z,7.10
2022-11-14T15:01:07.225Z,6.90
2022-11-14T15:03:37.807Z,6.70
2022-11-14T15:06:01.058Z,6.77
2022-11-14T15:08:22.544Z,6.43
2022-11-14T15:10:44.740Z,7.27
2022-11-14T15:13:06.344Z,8.07
2022-11-14T15:15:28.462Z,7.40
2022-11-14T15:17:50.338Z,6.97
2022-11-14T15:20:23.566Z,7.00
2022-11-14T15:23:02.589Z,7.00
2022-11-14T15:25:24.084Z,7.53
2022-11-14T15:27:50.001Z,6.77
2022-11-14T15:30:25.374Z,7.50
2022-11-14T15:32:52.081Z,7.30
2022-11-14T15:35:24.843Z,8.83
2022-11-14T15:41:20.693Z,8.13
2022-11-14T15:43:45.204Z,8.37
2022-11-14T15:46:43.535Z,8.53
2022-11-14T15:49:11.190Z,8.60
2022-11-14T15:51:39.820Z,8.60
2022-11-14T15:54:01.329Z,9.67
2022-11-14T15:56:23.551Z,9.23
2022-11-14T15:58:49.153Z,9.10
2022-11-14T16:01:18.356Z,9.60
2022-11-14T16:03:39.997Z,9.57
2022-11-14T16:06:01.447Z,9.47
2022-11-14T16:08:22.896Z,8.53
2022-11-14T16:10:44.879Z,8.83
2022-11-14T16:13:06.637Z,7.67
2022-11-14T16:15:28.315Z,7.50
2022-11-14T16:17:50.879Z,7.40
2022-11-14T16:20:19.445Z,7.17
2022-11-14T16:22:40.876Z,8.00
2022-11-14T16:25:02.595Z,8.97
2022-11-14T16:27:24.035Z,9.37
2022-11-14T16:29:45.596Z,9.47
2022-11-14T16:32:10.301Z,11.40
2022-11-14T16:34:31.758Z,10.37
2022-11-14T16:37:02.970Z,11.60
2022-11-14T16:39:24.428Z,10.83
2022-11-14T16:41:45.958Z,9.97
2022-11-14T16:44:13.750Z,9.10
2022-11-14T16:46:35.223Z,7.87
2022-11-14T16:48:56.693Z,9.10
2022-11-14T16:51:46.127Z,8.87
2022-11-14T16:53:59.556Z,8.40
2022-11-14T16:56:21.015Z,8.80
2022-11-14T16:58:42.424Z,8.40
2022-11-14T17:01:06.557Z,8.93
2022-11-14T17:03:32.211Z,8.87
2022-11-14T17:05:53.967Z,9.37
2022-11-14T17:08:15.707Z,9.17
2022-11-14T17:10:44.482Z,8.30
2022-11-14T17:13:05.958Z,8.47
2022-11-14T17:15:27.395Z,8.87
2022-11-14T17:17:50.225Z,8.90
2022-11-14T17:20:11.809Z,8.20
2022-11-14T17:22:33.239Z,7.93
2022-11-14T17:24:54.838Z,7.93
2022-11-14T17:27:16.394Z,8.53
2022-11-14T17:29:37.847Z,8.20
2022-11-14T17:31:59.309Z,7.73
2022-11-14T17:34:20.854Z,7.97
2022-11-14T17:36:42.320Z,7.20
2022-11-14T17:39:04.000Z,7.40
2022-11-14T17:41:25.491Z,7.57
2022-11-14T17:43:47.000Z,7.93
2022-11-14T17:46:15.676Z,8.37
2022-11-14T17:48:37.884Z,7.47
2022-11-14T17:51:12.940Z,7.47
2022-11-14T17:53:34.637Z,7.30
2022-11-14T17:55:57.384Z,7.37
2022-11-14T17:58:18.806Z,6.83
2022-11-14T18:00:40.530Z,7.73
2022-11-14T18:03:02.042Z,7.97
2022-11-14T18:05:23.775Z,7.23
2022-11-14T18:07:45.194Z,8.23
2022-11-14T18:10:06.987Z,7.47
2022-11-14T18:12:28.427Z,7.17
2022-11-14T18:14:49.865Z,7.63
2022-11-14T18:17:13.362Z,7.73
2022-11-14T18:19:35.081Z,7.23
2022-11-14T18:21:56.559Z,8.17
2022-11-14T18:24:18.093Z,7.37
2022-11-14T18:26:39.569Z,8.13
2022-11-14T18:29:04.370Z,6.80
2022-11-14T18:31:25.890Z,7.10
2022-11-14T18:33:47.427Z,8.03
2022-11-14T18:36:12.102Z,6.90
2022-11-14T18:38:33.907Z,7.33
2022-11-14T18:40:57.501Z,6.73
2022-11-14T18:43:19.251Z,6.00
2022-11-14T18:45:40.669Z,6.17
2022-11-14T18:48:02.111Z,5.60
2022-11-14T18:50:23.542Z,6.27
2022-11-14T18:52:45.030Z,5.87
2022-11-14T18:55:07.961Z,6.70
2022-11-14T18:57:29.416Z,6.00
2022-11-14T18:59:50.900Z,6.13
2022-11-14T19:02:12.368Z,6.00
2022-11-14T19:04:33.913Z,6.47
2022-11-14T19:06:56.302Z,6.27
2022-11-14T19:09:22.713Z,6.53
2022-11-14T19:12:02.364Z,6.80
2022-11-14T19:14:24.114Z,6.80
2022-11-14T19:16:45.591Z,6.73
2022-11-14T19:19:08.583Z,6.03
2022-11-14T19:21:30.448Z,6.13
2022-11-14T19:23:51.955Z,6.27
2022-11-14T19:26:13.501Z,6.20
2022-11-14T19:28:35.272Z,6.37
2022-11-14T19:31:04.822Z,6.50
2022-11-14T19:33:26.286Z,6.53
2022-11-14T19:35:47.711Z,6.97
2022-11-14T19:38:09.203Z,6.43
2022-11-14T19:40:30.934Z,7.53
2022-11-14T19:43:00.231Z,7.47
2022-11-14T19:45:21.643Z,7.20
2022-11-14T19:47:43.094Z,7.07
2022-11-14T19:50:04.815Z,7.47
2022-11-14T19:52:26.282Z,6.50
2022-11-14T19:54:49.135Z,6.13
2022-11-14T19:57:10.564Z,5.47
2022-11-14T19:59:32.035Z,5.53
2022-11-14T20:01:55.214Z,5.33
2022-11-14T20:04:17.073Z,8.00
2022-11-14T20:06:38.549Z,5.63
2022-11-14T20:09:08.931Z,6.37
2022-11-14T20:11:30.989Z,5.53
2022-11-14T20:13:52.511Z,5.60
2022-11-14T20:16:18.965Z,4.60
2022-11-14T20:18:42.271Z,4.27
2022-11-14T20:21:08.789Z,4.17
2022-11-14T20:23:30.585Z,4.30
2022-11-14T20:25:52.912Z,3.80
2022-11-14T20:28:14.622Z,4.40
2022-11-14T20:30:40.144Z,4.70
2022-11-14T20:33:01.591Z,3.33
2022-11-14T20:35:22.994Z,3.40
2022-11-14T20:37:44.433Z,3.53
2022-11-14T20:40:06.567Z,3.60
2022-11-14T20:42:28.005Z,3.50
2022-11-14T20:44:49.513Z,3.83
2022-11-14T20:47:11.442Z,3.43
2022-11-14T20:49:32.963Z,3.70
2022-11-14T20:51:54.553Z,3.80
2022-11-14T20:54:16.378Z,3.50
2022-11-14T20:56:37.876Z,3.57
2022-11-14T20:58:59.311Z,3.87
2022-11-14T21:01:20.935Z,3.53
2022-11-14T21:03:42.441Z,3.53
2022-11-14T21:06:04.558Z,4.57
2022-11-14T21:08:25.991Z,5.57
2022-11-14T21:10:50.662Z,4.33
2022-11-14T21:13:38.160Z,3.90
2022-11-14T21:16:00.653Z,4.13
2022-11-14T21:18:22.074Z,3.90
2022-11-14T21:20:43.561Z,3.80
2022-11-14T21:23:05.049Z,3.80
2022-11-14T21:25:26.624Z,3.40
2022-11-14T21:27:48.161Z,3.70
2022-11-14T21:30:09.873Z,3.33
2022-11-14T21:32:31.336Z,3.47
2022-11-14T21:34:52.801Z,3.23
2022-11-14T21:37:14.275Z,3.70
2022-11-14T21:39:35.767Z,3.77
2022-11-14T21:41:57.230Z,3.73
2022-11-14T21:44:19.202Z,3.57
2022-11-14T21:46:40.953Z,3.57
2022-11-14T21:49:02.380Z,3.23
2022-11-14T21:51:26.746Z,3.77
2022-11-14T21:53:49.369Z,6.80
2022-11-14T21:56:28.721Z,4.37
2022-11-14T21:58:51.388Z,3.20
2022-11-14T22:01:15.569Z,3.47
2022-11-14T22:03:56.288Z,4.10
2022-11-14T22:06:17.756Z,3.60
2022-11-14T22:08:39.179Z,3.20
2022-11-14T22:11:01.498Z,3.47
2022-11-14T22:13:22.945Z,3.97
2022-11-14T22:15:44.400Z,3.60
2022-11-14T22:18:05.837Z,3.70
2022-11-14T22:20:27.314Z,3.77
2022-11-14T22:22:48.807Z,3.87
2022-11-14T22:25:10.343Z,4.20
2022-11-14T22:27:31.802Z,4.20
2022-11-14T22:29:53.244Z,3.87
2022-11-14T22:32:14.679Z,3.67
2022-11-14T22:34:36.109Z,3.40
2022-11-14T22:36:57.570Z,3.63
2022-11-14T22:39:18.984Z,3.70
2022-11-14T22:41:40.692Z,3.60
2022-11-14T22:44:02.427Z,3.37
2022-11-14T22:46:24.385Z,3.70
2022-11-14T22:48:47.037Z,3.70
2022-11-14T22:51:10.962Z,3.90
2022-11-14T22:53:34.592Z,3.77
2022-11-14T22:55:56.525Z,4.13
2022-11-14T22:58:17.987Z,3.70
2022-11-14T23:00:39.504Z,3.73
2022-11-14T23:03:00.980Z,4.10
2022-11-14T23:05:22.454Z,3.97
2022-11-14T23:07:43.897Z,3.97
2022-11-14T23:10:05.800Z,3.83
2022-11-14T23:12:27.249Z,3.80
2022-11-14T23:14:48.674Z,4.07
2022-11-14T23:17:10.117Z,3.70
2022-11-14T23:19:31.564Z,4.03
2022-11-14T23:21:53.886Z,3.93
2022-11-14T23:24:15.677Z,3.50
2022-11-14T23:26:37.120Z,3.73
2022-11-14T23:28:59.072Z,3.80
2022-11-14T23:31:21.250Z,3.47
2022-11-14T23:33:42.698Z,3.90
2022-11-14T23:36:04.795Z,3.60
2022-11-14T23:38:26.426Z,3.83
2022-11-14T23:40:55.402Z,3.90
2022-11-14T23:43:16.861Z,3.53
2022-11-14T23:45:42.510Z,3.87
2022-11-14T23:48:04.093Z,3.77
2022-11-14T23:50:25.543Z,4.10
2022-11-14T23:52:47.016Z,3.70
2022-11-14T23:55:08.463Z,3.33
2022-11-14T23:57:31.090Z,4.10
2022-11-14T23:59:53.078Z,3.60
